sensor_id;sensor_type;location;lat;lon;timestamp;P1;durP1;ratioP1;P2;durP2;ratioP2
4355;SDS011;64374;51.482;7.408;2023-04-24T00:00:07;1.37;;;0.60;;
4355;SDS011;64374;51.482;7.408;2023-04-24T00:02:37;1.43;;;0.80;;
4355;SDS011;64374;51.482;7.408;2023-04-24T00:05:09;0.83;;;0.83;;
4355;SDS011;64374;51.482;7.408;2023-04-24T00:07:38;1.33;;;0.80;;
4355;SDS011;64374;51.482;7.408;2023-04-24T00:10:08;1.00;;;0.70;;
4355;SDS011;64374;51.482;7.408;2023-04-24T00:12:37;0.80;;;0.70;;
4355;SDS011;64374;51.482;7.408;2023-04-24T00:15:07;1.27;;;0.90;;
4355;SDS011;64374;51.482;7.408;2023-04-24T00:17:36;0.80;;;0.67;;
4355;SDS011;64374;51.482;7.408;2023-04-24T00:20:06;1.70;;;0.97;;
4355;SDS011;64374;51.482;7.408;2023-04-24T00:22:38;1.00;;;0.83;;
4355;SDS011;64374;51.482;7.408;2023-04-24T00:25:09;3.70;;;1.00;;
4355;SDS011;64374;51.482;7.408;2023-04-24T00:27:38;2.70;;;0.90;;
4355;SDS011;64374;51.482;7.408;2023-04-24T00:30:07;2.10;;;0.90;;
4355;SDS011;64374;51.482;7.408;2023-04-24T00:32:35;1.30;;;0.90;;
4355;SDS011;64374;51.482;7.408;2023-04-24T00:35:04;1.10;;;1.00;;
4355;SDS011;64374;51.482;7.408;2023-04-24T00:37:33;1.33;;;0.90;;
4355;SDS011;64374;51.482;7.408;2023-04-24T00:40:04;1.10;;;1.00;;
4355;SDS011;64374;51.482;7.408;2023-04-24T00:42:33;1.10;;;1.00;;
4355;SDS011;64374;51.482;7.408;2023-04-24T00:45:04;1.17;;;0.90;;
4355;SDS011;64374;51.482;7.408;2023-04-24T00:47:34;2.60;;;1.10;;
4355;SDS011;64374;51.482;7.408;2023-04-24T00:50:04;2.10;;;1.03;;
4355;SDS011;64374;51.482;7.408;2023-04-24T00:52:34;3.20;;;1.30;;
4355;SDS011;64374;51.482;7.408;2023-04-24T00:55:05;2.40;;;1.07;;
4355;SDS011;64374;51.482;7.408;2023-04-24T00:57:34;3.30;;;1.03;;
4355;SDS011;64374;51.482;7.408;2023-04-24T01:00:03;1.57;;;1.10;;
4355;SDS011;64374;51.482;7.408;2023-04-24T01:02:36;1.93;;;1.10;;
4355;SDS011;64374;51.482;7.408;2023-04-24T01:05:11;2.80;;;1.20;;
4355;SDS011;64374;51.482;7.408;2023-04-24T01:07:41;1.67;;;1.13;;
4355;SDS011;64374;51.482;7.408;2023-04-24T01:10:14;1.33;;;1.00;;
4355;SDS011;64374;51.482;7.408;2023-04-24T01:12:44;3.67;;;1.30;;
4355;SDS011;64374;51.482;7.408;2023-04-24T01:15:13;2.83;;;1.33;;
4355;SDS011;64374;51.482;7.408;2023-04-24T01:17:42;2.53;;;1.20;;
4355;SDS011;64374;51.482;7.408;2023-04-24T01:20:13;1.53;;;1.30;;
4355;SDS011;64374;51.482;7.408;2023-04-24T01:22:43;8.53;;;1.30;;
4355;SDS011;64374;51.482;7.408;2023-04-24T01:25:11;1.33;;;1.23;;
4355;SDS011;64374;51.482;7.408;2023-04-24T01:27:40;1.57;;;1.10;;
4355;SDS011;64374;51.482;7.408;2023-04-24T01:30:08;3.30;;;1.47;;
4355;SDS011;64374;51.482;7.408;2023-04-24T01:32:38;4.40;;;1.30;;
4355;SDS011;64374;51.482;7.408;2023-04-24T01:35:07;3.20;;;1.27;;
4355;SDS011;64374;51.482;7.408;2023-04-24T01:37:36;2.90;;;1.30;;
4355;SDS011;64374;51.482;7.408;2023-04-24T01:40:07;3.57;;;1.17;;
4355;SDS011;64374;51.482;7.408;2023-04-24T01:42:36;4.60;;;1.70;;
4355;SDS011;64374;51.482;7.408;2023-04-24T01:45:05;1.40;;;1.20;;
4355;SDS011;64374;51.482;7.408;2023-04-24T01:47:34;1.20;;;1.10;;
4355;SDS011;64374;51.482;7.408;2023-04-24T01:50:03;2.90;;;1.50;;
4355;SDS011;64374;51.482;7.408;2023-04-24T01:52:31;3.00;;;1.17;;
4355;SDS011;64374;51.482;7.408;2023-04-24T01:55:01;1.83;;;1.30;;
4355;SDS011;64374;51.482;7.408;2023-04-24T01:57:31;1.90;;;1.43;;
4355;SDS011;64374;51.482;7.408;2023-04-24T02:00:01;1.87;;;1.33;;
4355;SDS011;64374;51.482;7.408;2023-04-24T02:02:38;3.27;;;1.40;;
4355;SDS011;64374;51.482;7.408;2023-04-24T02:05:12;1.60;;;1.50;;
4355;SDS011;64374;51.482;7.408;2023-04-24T02:07:41;1.53;;;1.23;;
4355;SDS011;64374;51.482;7.408;2023-04-24T02:10:10;2.80;;;1.40;;
4355;SDS011;64374;51.482;7.408;2023-04-24T02:12:42;3.53;;;2.03;;
4355;SDS011;64374;51.482;7.408;2023-04-24T02:15:11;5.80;;;1.60;;
4355;SDS011;64374;51.482;7.408;2023-04-24T02:17:40;1.87;;;1.40;;
4355;SDS011;64374;51.482;7.408;2023-04-24T02:20:09;4.80;;;1.60;;
4355;SDS011;64374;51.482;7.408;2023-04-24T02:22:37;2.17;;;1.90;;
4355;SDS011;64374;51.482;7.408;2023-04-24T02:25:06;5.37;;;1.80;;
4355;SDS011;64374;51.482;7.408;2023-04-24T02:27:34;2.63;;;2.40;;
4355;SDS011;64374;51.482;7.408;2023-04-24T02:30:07;2.33;;;2.13;;
4355;SDS011;64374;51.482;7.408;2023-04-24T02:32:37;6.27;;;2.77;;
4355;SDS011;64374;51.482;7.408;2023-04-24T02:35:11;7.23;;;2.83;;
4355;SDS011;64374;51.482;7.408;2023-04-24T02:37:39;3.83;;;2.77;;
4355;SDS011;64374;51.482;7.408;2023-04-24T02:40:11;4.10;;;3.77;;
4355;SDS011;64374;51.482;7.408;2023-04-24T02:42:40;4.43;;;2.93;;
4355;SDS011;64374;51.482;7.408;2023-04-24T02:45:10;5.40;;;2.60;;
4355;SDS011;64374;51.482;7.408;2023-04-24T02:47:39;6.87;;;3.10;;
4355;SDS011;64374;51.482;7.408;2023-04-24T02:50:08;2.93;;;2.63;;
4355;SDS011;64374;51.482;7.408;2023-04-24T02:52:37;6.70;;;3.27;;
4355;SDS011;64374;51.482;7.408;2023-04-24T02:55:05;4.70;;;3.30;;
4355;SDS011;64374;51.482;7.408;2023-04-24T02:57:35;4.73;;;3.80;;
4355;SDS011;64374;51.482;7.408;2023-04-24T03:00:04;6.10;;;5.03;;
4355;SDS011;64374;51.482;7.408;2023-04-24T03:02:41;8.30;;;5.03;;
4355;SDS011;64374;51.482;7.408;2023-04-24T03:05:10;9.40;;;5.30;;
4355;SDS011;64374;51.482;7.408;2023-04-24T03:07:40;8.67;;;4.63;;
4355;SDS011;64374;51.482;7.408;2023-04-24T03:10:08;6.03;;;5.43;;
4355;SDS011;64374;51.482;7.408;2023-04-24T03:12:38;8.90;;;6.30;;
4355;SDS011;64374;51.482;7.408;2023-04-24T03:15:07;7.60;;;5.43;;
4355;SDS011;64374;51.482;7.408;2023-04-24T03:17:36;9.17;;;5.37;;
4355;SDS011;64374;51.482;7.408;2023-04-24T03:20:07;6.50;;;5.57;;
4355;SDS011;64374;51.482;7.408;2023-04-24T03:22:37;10.00;;;6.53;;
4355;SDS011;64374;51.482;7.408;2023-04-24T03:25:08;9.93;;;6.50;;
4355;SDS011;64374;51.482;7.408;2023-04-24T03:27:38;9.03;;;6.07;;
4355;SDS011;64374;51.482;7.408;2023-04-24T03:30:17;10.93;;;7.10;;
4355;SDS011;64374;51.482;7.408;2023-04-24T03:32:51;10.43;;;6.80;;
4355;SDS011;64374;51.482;7.408;2023-04-24T03:35:26;9.50;;;8.10;;
4355;SDS011;64374;51.482;7.408;2023-04-24T03:37:56;9.60;;;7.33;;
4355;SDS011;64374;51.482;7.408;2023-04-24T03:40:42;9.40;;;7.80;;
4355;SDS011;64374;51.482;7.408;2023-04-24T03:43:35;12.60;;;8.57;;
4355;SDS011;64374;51.482;7.408;2023-04-24T03:46:05;12.27;;;7.93;;
4355;SDS011;64374;51.482;7.408;2023-04-24T03:48:37;12.00;;;7.47;;
4355;SDS011;64374;51.482;7.408;2023-04-24T03:51:09;14.10;;;8.50;;
4355;SDS011;64374;51.482;7.408;2023-04-24T03:53:41;11.93;;;8.30;;
4355;SDS011;64374;51.482;7.408;2023-04-24T03:56:12;13.40;;;7.90;;
4355;SDS011;64374;51.482;7.408;2023-04-24T03:58:40;12.87;;;8.03;;
4355;SDS011;64374;51.482;7.408;2023-04-24T04:01:10;12.00;;;7.50;;
4355;SDS011;64374;51.482;7.408;2023-04-24T04:03:52;16.70;;;7.50;;
4355;SDS011;64374;51.482;7.408;2023-04-24T04:06:24;13.70;;;8.00;;
4355;SDS011;64374;51.482;7.408;2023-04-24T04:08:54;12.60;;;8.00;;
4355;SDS011;64374;51.482;7.408;2023-04-24T04:11:23;11.43;;;7.80;;
4355;SDS011;64374;51.482;7.408;2023-04-24T04:13:52;12.70;;;8.17;;
4355;SDS011;64374;51.482;7.408;2023-04-24T04:16:21;15.70;;;9.07;;
4355;SDS011;64374;51.482;7.408;2023-04-24T04:18:55;12.10;;;8.07;;
4355;SDS011;64374;51.482;7.408;2023-04-24T04:21:25;11.93;;;9.20;;
4355;SDS011;64374;51.482;7.408;2023-04-24T04:24:02;10.20;;;7.77;;
4355;SDS011;64374;51.482;7.408;2023-04-24T04:26:37;13.87;;;8.07;;
4355;SDS011;64374;51.482;7.408;2023-04-24T04:29:08;12.90;;;10.13;;
4355;SDS011;64374;51.482;7.408;2023-04-24T04:31:40;12.23;;;8.13;;
4355;SDS011;64374;51.482;7.408;2023-04-24T04:34:15;15.50;;;8.40;;
4355;SDS011;64374;51.482;7.408;2023-04-24T04:36:45;11.90;;;8.77;;
4355;SDS011;64374;51.482;7.408;2023-04-24T04:39:27;13.17;;;8.30;;
4355;SDS011;64374;51.482;7.408;2023-04-24T04:42:00;13.73;;;8.63;;
4355;SDS011;64374;51.482;7.408;2023-04-24T04:44:35;11.33;;;8.50;;
4355;SDS011;64374;51.482;7.408;2023-04-24T04:47:07;10.77;;;8.30;;
4355;SDS011;64374;51.482;7.408;2023-04-24T04:49:37;11.80;;;7.57;;
4355;SDS011;64374;51.482;7.408;2023-04-24T04:52:12;11.40;;;8.57;;
4355;SDS011;64374;51.482;7.408;2023-04-24T04:54:43;13.23;;;9.20;;
4355;SDS011;64374;51.482;7.408;2023-04-24T04:57:12;15.67;;;9.37;;
4355;SDS011;64374;51.482;7.408;2023-04-24T04:59:40;15.07;;;8.37;;
4355;SDS011;64374;51.482;7.408;2023-04-24T05:02:15;11.83;;;9.40;;
4355;SDS011;64374;51.482;7.408;2023-04-24T05:04:44;14.00;;;9.63;;
4355;SDS011;64374;51.482;7.408;2023-04-24T05:07:14;14.30;;;9.37;;
4355;SDS011;64374;51.482;7.408;2023-04-24T05:09:46;10.27;;;8.00;;
4355;SDS011;64374;51.482;7.408;2023-04-24T05:12:15;20.20;;;9.80;;
4355;SDS011;64374;51.482;7.408;2023-04-24T05:14:50;13.93;;;9.07;;
4355;SDS011;64374;51.482;7.408;2023-04-24T05:17:18;16.07;;;9.77;;
4355;SDS011;64374;51.482;7.408;2023-04-24T05:19:47;18.00;;;9.10;;
4355;SDS011;64374;51.482;7.408;2023-04-24T05:22:17;12.30;;;8.63;;
4355;SDS011;64374;51.482;7.408;2023-04-24T05:24:50;17.80;;;9.27;;
4355;SDS011;64374;51.482;7.408;2023-04-24T05:27:32;15.50;;;9.40;;
4355;SDS011;64374;51.482;7.408;2023-04-24T05:30:06;9.70;;;7.37;;
4355;SDS011;64374;51.482;7.408;2023-04-24T05:32:36;14.40;;;7.70;;
4355;SDS011;64374;51.482;7.408;2023-04-24T05:35:06;9.27;;;7.90;;
4355;SDS011;64374;51.482;7.408;2023-04-24T05:37:37;11.60;;;7.53;;
4355;SDS011;64374;51.482;7.408;2023-04-24T05:40:06;11.03;;;7.07;;
4355;SDS011;64374;51.482;7.408;2023-04-24T05:42:36;11.87;;;8.50;;
4355;SDS011;64374;51.482;7.408;2023-04-24T05:45:04;13.33;;;8.20;;
4355;SDS011;64374;51.482;7.408;2023-04-24T05:47:36;9.93;;;7.73;;
4355;SDS011;64374;51.482;7.408;2023-04-24T05:50:05;12.37;;;7.70;;
4355;SDS011;64374;51.482;7.408;2023-04-24T05:52:34;9.73;;;7.60;;
4355;SDS011;64374;51.482;7.408;2023-04-24T05:55:16;13.23;;;7.57;;
4355;SDS011;64374;51.482;7.408;2023-04-24T05:57:46;8.43;;;6.20;;
4355;SDS011;64374;51.482;7.408;2023-04-24T06:00:14;12.43;;;7.43;;
4355;SDS011;64374;51.482;7.408;2023-04-24T06:02:50;7.97;;;6.87;;
4355;SDS011;64374;51.482;7.408;2023-04-24T06:05:20;9.70;;;7.40;;
4355;SDS011;64374;51.482;7.408;2023-04-24T06:07:53;9.57;;;8.00;;
4355;SDS011;64374;51.482;7.408;2023-04-24T06:10:24;12.97;;;7.57;;
4355;SDS011;64374;51.482;7.408;2023-04-24T06:12:53;8.40;;;6.97;;
4355;SDS011;64374;51.482;7.408;2023-04-24T06:15:23;11.07;;;7.47;;
4355;SDS011;64374;51.482;7.408;2023-04-24T06:18:05;9.90;;;6.53;;
4355;SDS011;64374;51.482;7.408;2023-04-24T06:20:35;10.80;;;7.07;;
4355;SDS011;64374;51.482;7.408;2023-04-24T06:23:04;14.33;;;8.00;;
4355;SDS011;64374;51.482;7.408;2023-04-24T06:25:33;12.60;;;6.73;;
4355;SDS011;64374;51.482;7.408;2023-04-24T06:28:01;11.83;;;6.03;;
4355;SDS011;64374;51.482;7.408;2023-04-24T06:30:30;8.40;;;5.93;;
4355;SDS011;64374;51.482;7.408;2023-04-24T06:32:58;10.13;;;7.27;;
4355;SDS011;64374;51.482;7.408;2023-04-24T06:35:44;9.90;;;7.60;;
4355;SDS011;64374;51.482;7.408;2023-04-24T06:38:16;6.93;;;5.53;;
4355;SDS011;64374;51.482;7.408;2023-04-24T06:40:45;10.77;;;5.13;;
4355;SDS011;64374;51.482;7.408;2023-04-24T06:43:13;5.50;;;4.87;;
4355;SDS011;64374;51.482;7.408;2023-04-24T06:45:42;4.40;;;4.00;;
4355;SDS011;64374;51.482;7.408;2023-04-24T06:48:11;5.60;;;4.70;;
4355;SDS011;64374;51.482;7.408;2023-04-24T06:50:40;5.27;;;4.77;;
4355;SDS011;64374;51.482;7.408;2023-04-24T06:53:08;6.60;;;4.60;;
4355;SDS011;64374;51.482;7.408;2023-04-24T06:55:42;5.27;;;4.67;;
4355;SDS011;64374;51.482;7.408;2023-04-24T06:58:12;9.37;;;5.43;;
4355;SDS011;64374;51.482;7.408;2023-04-24T07:00:41;6.73;;;4.77;;
4355;SDS011;64374;51.482;7.408;2023-04-24T07:03:09;6.97;;;5.20;;
4355;SDS011;64374;51.482;7.408;2023-04-24T07:05:38;4.97;;;4.20;;
4355;SDS011;64374;51.482;7.408;2023-04-24T07:08:08;5.93;;;4.50;;
4355;SDS011;64374;51.482;7.408;2023-04-24T07:10:38;8.00;;;4.77;;
4355;SDS011;64374;51.482;7.408;2023-04-24T07:13:08;4.93;;;4.50;;
4355;SDS011;64374;51.482;7.408;2023-04-24T07:15:36;5.67;;;4.73;;
4355;SDS011;64374;51.482;7.408;2023-04-24T07:18:06;6.77;;;4.53;;
4355;SDS011;64374;51.482;7.408;2023-04-24T07:20:35;4.80;;;4.40;;
4355;SDS011;64374;51.482;7.408;2023-04-24T07:23:04;4.90;;;4.50;;
4355;SDS011;64374;51.482;7.408;2023-04-24T07:25:33;7.03;;;4.17;;
4355;SDS011;64374;51.482;7.408;2023-04-24T07:28:02;6.40;;;4.90;;
4355;SDS011;64374;51.482;7.408;2023-04-24T07:30:34;4.47;;;4.03;;
4355;SDS011;64374;51.482;7.408;2023-04-24T07:33:03;4.77;;;4.27;;
4355;SDS011;64374;51.482;7.408;2023-04-24T07:35:33;6.77;;;4.43;;
4355;SDS011;64374;51.482;7.408;2023-04-24T07:38:02;3.57;;;3.00;;
4355;SDS011;64374;51.482;7.408;2023-04-24T07:40:30;5.60;;;2.67;;
4355;SDS011;64374;51.482;7.408;2023-04-24T07:42:58;3.27;;;2.60;;
4355;SDS011;64374;51.482;7.408;2023-04-24T07:45:27;5.53;;;2.90;;
4355;SDS011;64374;51.482;7.408;2023-04-24T07:48:00;2.70;;;2.50;;
4355;SDS011;64374;51.482;7.408;2023-04-24T07:50:29;4.60;;;2.43;;
4355;SDS011;64374;51.482;7.408;2023-04-24T07:52:57;2.87;;;2.07;;
4355;SDS011;64374;51.482;7.408;2023-04-24T07:55:25;2.50;;;2.30;;
4355;SDS011;64374;51.482;7.408;2023-04-24T07:57:55;2.60;;;2.10;;
4355;SDS011;64374;51.482;7.408;2023-04-24T08:00:24;2.27;;;2.07;;
4355;SDS011;64374;51.482;7.408;2023-04-24T08:02:52;1.77;;;1.67;;
4355;SDS011;64374;51.482;7.408;2023-04-24T08:05:23;1.83;;;1.73;;
4355;SDS011;64374;51.482;7.408;2023-04-24T08:07:54;2.00;;;1.40;;
4355;SDS011;64374;51.482;7.408;2023-04-24T08:10:23;1.47;;;1.37;;
4355;SDS011;64374;51.482;7.408;2023-04-24T08:12:52;1.70;;;1.17;;
4355;SDS011;64374;51.482;7.408;2023-04-24T08:15:22;3.00;;;1.90;;
4355;SDS011;64374;51.482;7.408;2023-04-24T08:17:50;1.43;;;1.33;;
4355;SDS011;64374;51.482;7.408;2023-04-24T08:20:20;3.03;;;1.63;;
4355;SDS011;64374;51.482;7.408;2023-04-24T08:22:50;1.40;;;1.30;;
4355;SDS011;64374;51.482;7.408;2023-04-24T08:25:19;1.37;;;1.23;;
4355;SDS011;64374;51.482;7.408;2023-04-24T08:27:50;1.73;;;1.30;;
4355;SDS011;64374;51.482;7.408;2023-04-24T08:30:18;2.40;;;1.10;;
4355;SDS011;64374;51.482;7.408;2023-04-24T08:32:47;1.43;;;1.10;;
4355;SDS011;64374;51.482;7.408;2023-04-24T08:35:16;2.17;;;1.10;;
4355;SDS011;64374;51.482;7.408;2023-04-24T08:37:45;1.87;;;1.07;;
4355;SDS011;64374;51.482;7.408;2023-04-24T08:40:16;0.80;;;0.70;;
4355;SDS011;64374;51.482;7.408;2023-04-24T08:42:48;0.90;;;0.67;;
4355;SDS011;64374;51.482;7.408;2023-04-24T08:45:20;0.90;;;0.60;;
4355;SDS011;64374;51.482;7.408;2023-04-24T08:47:50;1.00;;;0.70;;
4355;SDS011;64374;51.482;7.408;2023-04-24T08:50:23;3.80;;;0.60;;
4355;SDS011;64374;51.482;7.408;2023-04-24T08:52:52;1.63;;;0.70;;
4355;SDS011;64374;51.482;7.408;2023-04-24T08:55:24;1.60;;;0.90;;
4355;SDS011;64374;51.482;7.408;2023-04-24T08:57:53;5.63;;;1.00;;
4355;SDS011;64374;51.482;7.408;2023-04-24T09:00:22;0.70;;;0.70;;
4355;SDS011;64374;51.482;7.408;2023-04-24T09:02:52;3.50;;;0.77;;
4355;SDS011;64374;51.482;7.408;2023-04-24T09:05:21;1.30;;;0.90;;
4355;SDS011;64374;51.482;7.408;2023-04-24T09:07:54;1.00;;;0.90;;
4355;SDS011;64374;51.482;7.408;2023-04-24T09:10:26;2.90;;;0.90;;
4355;SDS011;64374;51.482;7.408;2023-04-24T09:12:57;1.30;;;0.73;;
4355;SDS011;64374;51.482;7.408;2023-04-24T09:15:29;2.20;;;1.07;;
4355;SDS011;64374;51.482;7.408;2023-04-24T09:17:58;1.23;;;1.03;;
4355;SDS011;64374;51.482;7.408;2023-04-24T09:20:26;1.00;;;0.70;;
4355;SDS011;64374;51.482;7.408;2023-04-24T09:22:54;2.10;;;0.93;;
4355;SDS011;64374;51.482;7.408;2023-04-24T09:25:32;1.70;;;1.13;;
4355;SDS011;64374;51.482;7.408;2023-04-24T09:28:03;1.37;;;1.10;;
4355;SDS011;64374;51.482;7.408;2023-04-24T09:30:33;1.93;;;1.20;;
4355;SDS011;64374;51.482;7.408;2023-04-24T09:33:09;1.50;;;1.10;;
4355;SDS011;64374;51.482;7.408;2023-04-24T09:35:40;3.00;;;1.73;;
4355;SDS011;64374;51.482;7.408;2023-04-24T09:38:09;1.60;;;1.50;;
4355;SDS011;64374;51.482;7.408;2023-04-24T09:40:40;1.60;;;1.50;;
4355;SDS011;64374;51.482;7.408;2023-04-24T09:43:10;1.30;;;1.20;;
4355;SDS011;64374;51.482;7.408;2023-04-24T09:45:40;2.60;;;1.80;;
4355;SDS011;64374;51.482;7.408;2023-04-24T09:48:10;1.63;;;1.53;;
4355;SDS011;64374;51.482;7.408;2023-04-24T09:50:38;1.50;;;1.40;;
4355;SDS011;64374;51.482;7.408;2023-04-24T09:53:07;1.83;;;1.50;;
4355;SDS011;64374;51.482;7.408;2023-04-24T09:55:41;1.70;;;1.60;;
4355;SDS011;64374;51.482;7.408;2023-04-24T09:58:12;2.40;;;1.20;;
4355;SDS011;64374;51.482;7.408;2023-04-24T10:00:41;2.40;;;1.70;;
4355;SDS011;64374;51.482;7.408;2023-04-24T10:03:09;2.43;;;1.63;;
4355;SDS011;64374;51.482;7.408;2023-04-24T10:05:39;2.70;;;1.23;;
4355;SDS011;64374;51.482;7.408;2023-04-24T10:08:12;1.60;;;1.10;;
4355;SDS011;64374;51.482;7.408;2023-04-24T10:10:45;1.63;;;1.53;;
4355;SDS011;64374;51.482;7.408;2023-04-24T10:13:14;2.27;;;1.67;;
4355;SDS011;64374;51.482;7.408;2023-04-24T10:15:44;2.07;;;1.67;;
4355;SDS011;64374;51.482;7.408;2023-04-24T10:18:13;2.77;;;2.00;;
4355;SDS011;64374;51.482;7.408;2023-04-24T10:21:05;3.87;;;2.40;;
4355;SDS011;64374;51.482;7.408;2023-04-24T10:23:34;2.90;;;2.20;;
4355;SDS011;64374;51.482;7.408;2023-04-24T10:26:05;3.30;;;2.53;;
4355;SDS011;64374;51.482;7.408;2023-04-24T10:28:33;3.70;;;2.57;;
4355;SDS011;64374;51.482;7.408;2023-04-24T10:31:03;2.20;;;1.93;;
4355;SDS011;64374;51.482;7.408;2023-04-24T10:33:33;2.73;;;2.33;;
4355;SDS011;64374;51.482;7.408;2023-04-24T10:36:01;2.40;;;1.97;;
4355;SDS011;64374;51.482;7.408;2023-04-24T10:38:30;3.07;;;2.47;;
4355;SDS011;64374;51.482;7.408;2023-04-24T10:41:07;2.40;;;2.20;;
4355;SDS011;64374;51.482;7.408;2023-04-24T10:43:40;3.13;;;2.33;;
4355;SDS011;64374;51.482;7.408;2023-04-24T10:46:09;2.57;;;2.20;;
4355;SDS011;64374;51.482;7.408;2023-04-24T10:48:42;2.47;;;2.27;;
4355;SDS011;64374;51.482;7.408;2023-04-24T10:51:12;5.30;;;2.97;;
4355;SDS011;64374;51.482;7.408;2023-04-24T10:53:41;3.13;;;2.83;;
4355;SDS011;64374;51.482;7.408;2023-04-24T10:56:10;3.53;;;2.87;;
4355;SDS011;64374;51.482;7.408;2023-04-24T10:58:41;2.83;;;2.23;;
4355;SDS011;64374;51.482;7.408;2023-04-24T11:01:23;5.70;;;3.03;;
4355;SDS011;64374;51.482;7.408;2023-04-24T11:03:54;5.30;;;3.80;;
4355;SDS011;64374;51.482;7.408;2023-04-24T11:06:28;4.37;;;3.97;;
4355;SDS011;64374;51.482;7.408;2023-04-24T11:09:01;7.40;;;3.50;;
4355;SDS011;64374;51.482;7.408;2023-04-24T11:11:34;6.63;;;3.90;;
4355;SDS011;64374;51.482;7.408;2023-04-24T11:14:04;6.70;;;4.00;;
4355;SDS011;64374;51.482;7.408;2023-04-24T11:16:34;8.20;;;4.60;;
4355;SDS011;64374;51.482;7.408;2023-04-24T11:19:08;7.60;;;3.93;;
4355;SDS011;64374;51.482;7.408;2023-04-24T11:21:39;9.83;;;5.17;;
4355;SDS011;64374;51.482;7.408;2023-04-24T11:24:29;12.43;;;5.03;;
4355;SDS011;64374;51.482;7.408;2023-04-24T11:27:05;11.73;;;5.47;;
4355;SDS011;64374;51.482;7.408;2023-04-24T11:29:38;9.87;;;5.73;;
4355;SDS011;64374;51.482;7.408;2023-04-24T11:32:24;7.93;;;5.07;;
4355;SDS011;64374;51.482;7.408;2023-04-24T11:34:55;9.63;;;5.60;;
4355;SDS011;64374;51.482;7.408;2023-04-24T11:37:26;9.67;;;5.60;;
4355;SDS011;64374;51.482;7.408;2023-04-24T11:39:57;17.80;;;6.63;;
4355;SDS011;64374;51.482;7.408;2023-04-24T11:42:29;8.63;;;5.30;;
4355;SDS011;64374;51.482;7.408;2023-04-24T11:45:07;10.30;;;5.07;;
4355;SDS011;64374;51.482;7.408;2023-04-24T11:47:36;10.30;;;5.50;;
4355;SDS011;64374;51.482;7.408;2023-04-24T11:50:05;15.60;;;5.73;;
4355;SDS011;64374;51.482;7.408;2023-04-24T11:52:36;10.93;;;5.67;;
4355;SDS011;64374;51.482;7.408;2023-04-24T11:55:06;10.30;;;6.07;;
4355;SDS011;64374;51.482;7.408;2023-04-24T11:57:37;15.47;;;6.50;;
4355;SDS011;64374;51.482;7.408;2023-04-24T12:00:06;9.43;;;5.50;;
4355;SDS011;64374;51.482;7.408;2023-04-24T12:02:39;15.43;;;6.10;;
4355;SDS011;64374;51.482;7.408;2023-04-24T12:05:12;10.40;;;5.57;;
4355;SDS011;64374;51.482;7.408;2023-04-24T12:07:51;11.13;;;6.40;;
4355;SDS011;64374;51.482;7.408;2023-04-24T12:10:23;11.80;;;6.03;;
4355;SDS011;64374;51.482;7.408;2023-04-24T12:12:55;12.13;;;4.43;;
4355;SDS011;64374;51.482;7.408;2023-04-24T12:15:23;12.60;;;4.53;;
4355;SDS011;64374;51.482;7.408;2023-04-24T12:17:52;11.23;;;4.47;;
4355;SDS011;64374;51.482;7.408;2023-04-24T12:20:26;13.07;;;4.80;;
4355;SDS011;64374;51.482;7.408;2023-04-24T12:22:57;10.90;;;4.07;;
4355;SDS011;64374;51.482;7.408;2023-04-24T12:25:27;15.70;;;4.63;;
4355;SDS011;64374;51.482;7.408;2023-04-24T12:28:09;7.70;;;3.83;;
4355;SDS011;64374;51.482;7.408;2023-04-24T12:30:39;9.00;;;3.83;;
4355;SDS011;64374;51.482;7.408;2023-04-24T12:33:11;11.17;;;5.00;;
4355;SDS011;64374;51.482;7.408;2023-04-24T12:35:40;10.73;;;4.90;;
4355;SDS011;64374;51.482;7.408;2023-04-24T12:38:10;11.27;;;3.93;;
4355;SDS011;64374;51.482;7.408;2023-04-24T12:40:40;9.33;;;4.70;;
4355;SDS011;64374;51.482;7.408;2023-04-24T12:43:15;17.67;;;4.00;;
4355;SDS011;64374;51.482;7.408;2023-04-24T12:45:45;9.70;;;4.23;;
4355;SDS011;64374;51.482;7.408;2023-04-24T12:48:13;7.37;;;3.60;;
4355;SDS011;64374;51.482;7.408;2023-04-24T12:50:42;5.17;;;3.50;;
4355;SDS011;64374;51.482;7.408;2023-04-24T12:53:14;6.67;;;4.63;;
4355;SDS011;64374;51.482;7.408;2023-04-24T12:55:43;7.20;;;3.70;;
4355;SDS011;64374;51.482;7.408;2023-04-24T12:58:15;10.63;;;4.30;;
4355;SDS011;64374;51.482;7.408;2023-04-24T13:00:44;10.50;;;3.43;;
4355;SDS011;64374;51.482;7.408;2023-04-24T13:03:13;7.97;;;3.50;;
4355;SDS011;64374;51.482;7.408;2023-04-24T13:05:42;6.53;;;4.43;;
4355;SDS011;64374;51.482;7.408;2023-04-24T13:08:11;7.63;;;4.10;;
4355;SDS011;64374;51.482;7.408;2023-04-24T13:10:40;9.00;;;4.87;;
4355;SDS011;64374;51.482;7.408;2023-04-24T13:13:08;6.17;;;4.40;;
4355;SDS011;64374;51.482;7.408;2023-04-24T13:15:38;7.13;;;4.33;;
4355;SDS011;64374;51.482;7.408;2023-04-24T13:18:07;4.60;;;3.00;;
4355;SDS011;64374;51.482;7.408;2023-04-24T13:20:35;9.50;;;2.70;;
4355;SDS011;64374;51.482;7.408;2023-04-24T13:23:03;6.83;;;2.77;;
4355;SDS011;64374;51.482;7.408;2023-04-24T13:25:34;7.30;;;3.07;;
4355;SDS011;64374;51.482;7.408;2023-04-24T13:28:04;6.50;;;3.40;;
4355;SDS011;64374;51.482;7.408;2023-04-24T13:30:33;7.73;;;3.10;;
4355;SDS011;64374;51.482;7.408;2023-04-24T13:33:02;10.80;;;3.10;;
4355;SDS011;64374;51.482;7.408;2023-04-24T13:35:31;4.03;;;2.83;;
4355;SDS011;64374;51.482;7.408;2023-04-24T13:38:00;2.73;;;2.30;;
4355;SDS011;64374;51.482;7.408;2023-04-24T13:40:32;11.50;;;2.97;;
4355;SDS011;64374;51.482;7.408;2023-04-24T13:43:01;9.83;;;2.80;;
4355;SDS011;64374;51.482;7.408;2023-04-24T13:45:29;6.10;;;2.83;;
4355;SDS011;64374;51.482;7.408;2023-04-24T13:47:58;3.23;;;2.20;;
4355;SDS011;64374;51.482;7.408;2023-04-24T13:50:27;6.17;;;3.07;;
4355;SDS011;64374;51.482;7.408;2023-04-24T13:52:56;4.10;;;2.50;;
4355;SDS011;64374;51.482;7.408;2023-04-24T13:55:29;5.30;;;2.33;;
4355;SDS011;64374;51.482;7.408;2023-04-24T13:57:57;3.40;;;1.83;;
4355;SDS011;64374;51.482;7.408;2023-04-24T14:00:26;6.87;;;2.20;;
4355;SDS011;64374;51.482;7.408;2023-04-24T14:02:54;4.93;;;2.00;;
4355;SDS011;64374;51.482;7.408;2023-04-24T14:05:23;5.43;;;1.97;;
4355;SDS011;64374;51.482;7.408;2023-04-24T14:07:52;4.53;;;1.80;;
4355;SDS011;64374;51.482;7.408;2023-04-24T14:10:21;3.33;;;1.60;;
4355;SDS011;64374;51.482;7.408;2023-04-24T14:12:50;4.83;;;1.50;;
4355;SDS011;64374;51.482;7.408;2023-04-24T14:15:20;1.97;;;1.70;;
4355;SDS011;64374;51.482;7.408;2023-04-24T14:17:48;6.43;;;1.80;;
4355;SDS011;64374;51.482;7.408;2023-04-24T14:20:18;4.13;;;1.73;;
4355;SDS011;64374;51.482;7.408;2023-04-24T14:22:46;2.20;;;1.80;;
4355;SDS011;64374;51.482;7.408;2023-04-24T14:25:16;4.00;;;1.90;;
4355;SDS011;64374;51.482;7.408;2023-04-24T14:27:45;5.23;;;2.47;;
4355;SDS011;64374;51.482;7.408;2023-04-24T14:30:13;1.73;;;1.60;;
4355;SDS011;64374;51.482;7.408;2023-04-24T14:32:42;3.73;;;2.07;;
4355;SDS011;64374;51.482;7.408;2023-04-24T14:35:10;6.57;;;1.60;;
4355;SDS011;64374;51.482;7.408;2023-04-24T14:37:40;6.13;;;1.47;;
4355;SDS011;64374;51.482;7.408;2023-04-24T14:40:33;5.60;;;1.83;;
4355;SDS011;64374;51.482;7.408;2023-04-24T14:43:21;6.23;;;1.33;;
4355;SDS011;64374;51.482;7.408;2023-04-24T14:45:49;3.63;;;1.50;;
4355;SDS011;64374;51.482;7.408;2023-04-24T14:48:18;3.97;;;1.87;;
4355;SDS011;64374;51.482;7.408;2023-04-24T14:50:48;2.93;;;1.60;;
4355;SDS011;64374;51.482;7.408;2023-04-24T14:53:16;9.80;;;2.57;;
4355;SDS011;64374;51.482;7.408;2023-04-24T14:55:47;2.63;;;1.57;;
4355;SDS011;64374;51.482;7.408;2023-04-24T14:58:15;3.20;;;1.80;;
4355;SDS011;64374;51.482;7.408;2023-04-24T15:00:46;3.23;;;2.20;;
4355;SDS011;64374;51.482;7.408;2023-04-24T15:03:16;2.43;;;1.80;;
4355;SDS011;64374;51.482;7.408;2023-04-24T15:05:48;2.70;;;1.80;;
4355;SDS011;64374;51.482;7.408;2023-04-24T15:08:17;2.60;;;1.53;;
4355;SDS011;64374;51.482;7.408;2023-04-24T15:10:46;3.03;;;1.70;;
4355;SDS011;64374;51.482;7.408;2023-04-24T15:13:15;4.60;;;2.20;;
4355;SDS011;64374;51.482;7.408;2023-04-24T15:15:47;2.70;;;1.50;;
4355;SDS011;64374;51.482;7.408;2023-04-24T15:18:15;3.40;;;1.80;;